| ตารางข้อมูล | 4529T1 | 4529T2 | 4529T3 | 4529T4 | TH20402 | TH452-9A | TH452-9D | TH814 | ค้นข้อมูล1 | ค้นข้อมูล2 | ค่าสูงสุด-ต่ำสุด |  

Select Sensor -->| 20402 | 452-9A | 452-9D | 4529T1 | 4529T2 | 4529T3 | 4529T4 | 814 | หน้าจอย่อ | 4529 |
Data of room  814

IDRoomDate  Temp  Humidity
 183168  814  2021-02-28 16:39:14  30.5  74.6 
 183156  814  2021-02-28 16:09:13  29.1  77.7 
 183149  814  2021-02-28 15:49:11  29.1  77.7 
 183142  814  2021-02-28 15:29:06  29.0  77.7 
 183135  814  2021-02-28 15:09:01  28.8  77.8 
 183128  814  2021-02-28 14:48:59  28.8  77.9 
 183121  814  2021-02-28 14:28:54  28.7  77.8 
 183114  814  2021-02-28 14:08:52  28.7  77.8 
 183107  814  2021-02-28 13:48:45  28.6  77.5 
 183100  814  2021-02-28 13:28:42  28.5  77.5 
 183093  814  2021-02-28 13:08:40  28.5  77.5 
 183086  814  2021-02-28 12:48:37  28.5  77.6 
 183079  814  2021-02-28 12:28:35  28.5  77.7 
 183072  814  2021-02-28 12:08:33  28.5  77.7 
 183065  814  2021-02-28 11:48:30  28.5  77.8 
 183058  814  2021-02-28 11:28:28  28.5  77.7 
 183051  814  2021-02-28 11:08:25  28.5  77.6 
 183044  814  2021-02-28 10:48:23  28.5  77.7 
 183037  814  2021-02-28 10:28:20  28.5  77.7 
 183030  814  2021-02-28 10:08:18  28.5  77.8 
 183023  814  2021-02-28 09:48:16  28.5  77.9 
 183016  814  2021-02-28 09:28:11  28.4  76.6 
 183009  814  2021-02-28 09:08:08  28.4  77.2 
 183002  814  2021-02-28 08:48:06  28.4  77.7 
 182995  814  2021-02-28 08:28:04  28.4  77.9 
 182988  814  2021-02-28 08:08:00  28.4  78.0 
 182981  814  2021-02-28 07:47:58  28.3  77.8 
 182974  814  2021-02-28 07:27:55  28.4  77.8 
 182967  814  2021-02-28 07:07:53  28.5  77.6 
 182960  814  2021-02-28 06:47:50  28.5  77.5 
 182953  814  2021-02-28 06:27:48  28.5  77.2 
 182946  814  2021-02-28 06:07:46  28.6  76.9 
 182939  814  2021-02-28 05:47:43  28.7  76.1 
 182932  814  2021-02-28 05:27:41  28.7  76.1 
 182925  814  2021-02-28 05:07:36  28.7  76.3 
 182918  814  2021-02-28 04:47:32  28.7  76.7 
 182911  814  2021-02-28 04:27:29  28.8  76.7 
 182904  814  2021-02-28 04:07:24  28.8  76.8 
 182897  814  2021-02-28 03:47:20  28.8  76.7 
 182890  814  2021-02-28 03:27:17  28.8  77.2 
 182883  814  2021-02-28 03:07:15  28.8  77.2 
 182876  814  2021-02-28 02:47:10  28.8  77.9 
 182869  814  2021-02-28 02:27:06  28.9  78.3 
 182862  814  2021-02-28 02:07:03  28.9  78.3 
 182855  814  2021-02-28 01:46:58  28.9  78.4 
 182848  814  2021-02-28 01:26:54  28.9  78.4 
 182841  814  2021-02-28 01:06:49  28.9  78.3 
 182834  814  2021-02-28 00:46:47  29.0  78.4 
 182827  814  2021-02-28 00:26:42  28.9  78.1 
 182820  814  2021-02-28 00:06:39  29.0  78.1 
 182813  814  2021-02-27 23:46:37  29.0  78.2 
 182806  814  2021-02-27 23:26:32  29.0  78.1 
 182799  814  2021-02-27 23:06:21  29.0  77.9 
 182792  814  2021-02-27 22:46:18  29.0  77.9 
 182785  814  2021-02-27 22:26:16  29.0  77.8 
 182778  814  2021-02-27 22:06:14  29.0  77.7 
 182771  814  2021-02-27 21:46:11  29.0  77.7 
 182764  814  2021-02-27 21:26:09  29.0  77.6 
 182757  814  2021-02-27 21:06:06  29.0  77.6 
 182750  814  2021-02-27 20:46:04  28.9  77.4 
 182743  814  2021-02-27 20:26:02  28.9  77.2 
 182736  814  2021-02-27 20:05:59  29.0  77.3 
 182729  814  2021-02-27 19:45:57  28.9  77.1 
 182722  814  2021-02-27 19:25:54  28.9  77.0 
 182715  814  2021-02-27 19:05:52  29.0  77.0 
 182708  814  2021-02-27 18:45:49  28.9  76.9 
 182701  814  2021-02-27 18:25:47  28.9  76.8 
 182694  814  2021-02-27 18:05:45  28.9  76.6 
 182687  814  2021-02-27 17:45:42  28.9  77.3 
 182680  814  2021-02-27 17:25:40  28.9  76.5 
 182673  814  2021-02-27 17:05:37  28.9  76.2 
 182666  814  2021-02-27 16:45:35  28.9  75.9 

Data every 20 minute.


Data of room  814


Data every 20 minute.

  Show Graph